TimeCST,TemperatureF,Dew PointF,Humidity,Sea Level PressureIn,VisibilityMPH,Wind Direction,Wind SpeedMPH,Gust SpeedMPH,PrecipitationIn,Events,Conditions,WindDirDegrees,DateUTC
12:08 AM,41.0,18.1,40,-9999,-9999.0,SSW,12.7,-,N/A,,Unknown,200,2012-12-05 06:08:00
12:28 AM,41.0,18.1,40,-9999,-9999.0,SSW,12.7,-,N/A,,Unknown,200,2012-12-05 06:28:00
12:48 AM,39.9,17.1,40,-9999,-9999.0,SSW,12.7,-,N/A,,Unknown,210,2012-12-05 06:48:00
1:08 AM,39.9,18.1,42,-9999,-9999.0,SSW,13.8,-,N/A,,Unknown,200,2012-12-05 07:08:00
1:28 AM,39.0,18.1,43,-9999,-9999.0,SSW,13.8,-,N/A,,Unknown,200,2012-12-05 07:28:00
1:48 AM,39.0,19.0,45,-9999,-9999.0,SSW,11.5,-,N/A,,Unknown,200,2012-12-05 07:48:00
2:08 AM,39.0,19.0,45,-9999,-9999.0,SSW,10.4,-,N/A,,Unknown,200,2012-12-05 08:08:00
2:28 AM,37.9,20.1,49,-9999,-9999.0,South,10.4,-,N/A,,Unknown,190,2012-12-05 08:28:00
2:48 AM,37.0,19.0,48,-9999,-9999.0,SSW,10.4,-,N/A,,Unknown,200,2012-12-05 08:48:00
3:08 AM,37.9,20.1,49,-9999,-9999.0,South,13.8,-,N/A,,Unknown,190,2012-12-05 09:08:00
3:28 AM,37.0,20.1,50,-9999,-9999.0,South,13.8,-,N/A,,Unknown,180,2012-12-05 09:28:00
3:48 AM,37.0,20.1,50,-9999,-9999.0,South,11.5,-,N/A,,Unknown,180,2012-12-05 09:48:00
4:08 AM,37.0,19.0,48,-9999,-9999.0,South,11.5,-,N/A,,Unknown,190,2012-12-05 10:08:00
4:28 AM,36.0,19.0,50,-9999,-9999.0,South,10.4,-,N/A,,Unknown,180,2012-12-05 10:28:00
4:48 AM,35.1,19.0,52,-9999,-9999.0,South,10.4,-,N/A,,Unknown,190,2012-12-05 10:48:00
5:08 AM,36.0,19.0,50,-9999,-9999.0,South,11.5,-,N/A,,Unknown,190,2012-12-05 11:08:00
5:28 AM,37.0,19.0,48,-9999,-9999.0,South,12.7,-,N/A,,Unknown,180,2012-12-05 11:28:00
5:48 AM,37.0,19.0,48,-9999,-9999.0,SSW,12.7,-,N/A,,Unknown,200,2012-12-05 11:48:00
6:08 AM,37.0,19.0,48,-9999,-9999.0,South,12.7,-,N/A,,Unknown,190,2012-12-05 12:08:00
6:28 AM,37.0,19.0,48,-9999,-9999.0,South,11.5,-,N/A,,Unknown,190,2012-12-05 12:28:00
6:48 AM,37.0,19.0,48,-9999,-9999.0,South,11.5,-,N/A,,Unknown,190,2012-12-05 12:48:00
8:48 AM,37.9,21.0,51,-9999,-9999.0,South,12.7,-,N/A,,Unknown,190,2012-12-05 14:48:00
9:08 AM,39.0,22.1,51,-9999,-9999.0,South,12.7,-,N/A,,Unknown,190,2012-12-05 15:08:00
9:28 AM,39.9,22.1,49,-9999,-9999.0,South,12.7,-,N/A,,Unknown,190,2012-12-05 15:28:00
9:48 AM,42.1,23.0,47,-9999,-9999.0,South,11.5,-,N/A,,Unknown,190,2012-12-05 15:48:00
10:08 AM,44.1,24.1,45,-9999,-9999.0,South,16.1,-,N/A,,Unknown,190,2012-12-05 16:08:00
10:28 AM,48.0,26.1,42,-9999,-9999.0,South,13.8,-,N/A,,Unknown,190,2012-12-05 16:28:00
10:48 AM,48.0,27.1,44,-9999,-9999.0,SSW,12.7,-,N/A,,Unknown,200,2012-12-05 16:48:00
11:08 AM,50.0,28.0,43,-9999,-9999.0,South,10.4,-,N/A,,Unknown,190,2012-12-05 17:08:00
11:28 AM,51.1,27.1,40,-9999,-9999.0,South,13.8,-,N/A,,Unknown,190,2012-12-05 17:28:00
11:48 AM,53.1,28.0,38,-9999,-9999.0,South,16.1,-,N/A,,Unknown,180,2012-12-05 17:48:00
12:08 PM,54.0,29.1,39,-9999,-9999.0,South,16.1,-,N/A,,Unknown,180,2012-12-05 18:08:00
12:28 PM,55.9,28.0,34,-9999,-9999.0,South,18.4,-,N/A,,Unknown,180,2012-12-05 18:28:00
12:48 PM,57.0,28.0,33,-9999,-9999.0,South,18.4,-,N/A,,Unknown,180,2012-12-05 18:48:00
1:08 PM,57.9,28.0,32,-9999,-9999.0,South,15.0,-,N/A,,Unknown,190,2012-12-05 19:08:00
1:28 PM,59.0,28.0,31,-9999,-9999.0,South,19.6,-,N/A,,Unknown,180,2012-12-05 19:28:00
1:48 PM,59.0,28.0,31,-9999,-9999.0,South,15.0,-,N/A,,Unknown,190,2012-12-05 19:48:00
2:08 PM,60.1,28.0,30,-9999,-9999.0,South,15.0,-,N/A,,Unknown,180,2012-12-05 20:08:00
2:28 PM,61.0,28.0,29,-9999,-9999.0,South,13.8,-,N/A,,Unknown,180,2012-12-05 20:28:00
2:48 PM,60.1,28.0,30,-9999,-9999.0,South,17.3,-,N/A,,Unknown,170,2012-12-05 20:48:00
3:08 PM,61.0,28.0,29,-9999,-9999.0,South,18.4,-,N/A,,Unknown,170,2012-12-05 21:08:00
3:28 PM,61.0,28.0,29,-9999,-9999.0,South,18.4,-,N/A,,Unknown,180,2012-12-05 21:28:00
3:48 PM,61.0,29.1,30,-9999,-9999.0,South,18.4,-,N/A,,Unknown,170,2012-12-05 21:48:00
4:08 PM,60.1,28.0,30,-9999,-9999.0,South,17.3,-,N/A,,Unknown,170,2012-12-05 22:08:00
4:28 PM,59.0,27.1,30,-9999,-9999.0,South,18.4,-,N/A,,Unknown,170,2012-12-05 22:28:00
4:48 PM,57.9,28.0,32,-9999,-9999.0,South,11.5,-,N/A,,Unknown,190,2012-12-05 22:48:00
5:08 PM,55.9,28.0,34,-9999,-9999.0,South,11.5,-,N/A,,Unknown,170,2012-12-05 23:08:00
5:28 PM,54.0,26.1,34,-9999,-9999.0,South,13.8,-,N/A,,Unknown,180,2012-12-05 23:28:00
5:48 PM,52.0,26.1,37,-9999,-9999.0,South,11.5,-,N/A,,Unknown,180,2012-12-05 23:48:00
6:08 PM,51.1,26.1,38,-9999,-9999.0,South,10.4,-,N/A,,Unknown,180,2012-12-06 00:08:00
6:28 PM,51.1,27.1,40,-9999,-9999.0,South,11.5,-,N/A,,Unknown,170,2012-12-06 00:28:00
6:48 PM,48.9,25.2,40,-9999,-9999.0,South,12.7,-,N/A,,Unknown,180,2012-12-06 00:48:00
7:08 PM,48.0,26.1,42,-9999,-9999.0,South,10.4,-,N/A,,Unknown,170,2012-12-06 01:08:00
7:28 PM,48.0,26.1,42,-9999,-9999.0,South,10.4,-,N/A,,Unknown,170,2012-12-06 01:28:00
7:48 PM,46.0,25.2,44,-9999,-9999.0,South,9.2,-,N/A,,Unknown,170,2012-12-06 01:48:00
8:08 PM,45.0,25.2,46,-9999,-9999.0,South,9.2,-,N/A,,Unknown,170,2012-12-06 02:08:00
8:28 PM,42.1,23.0,47,-9999,-9999.0,South,11.5,-,N/A,,Unknown,170,2012-12-06 02:28:00
8:48 PM,45.0,24.1,44,-9999,-9999.0,South,13.8,-,N/A,,Unknown,170,2012-12-06 02:48:00
9:08 PM,45.0,25.2,46,-9999,-9999.0,South,11.5,-,N/A,,Unknown,170,2012-12-06 03:08:00
9:28 PM,43.0,24.1,47,-9999,-9999.0,SSE,10.4,-,N/A,,Unknown,160,2012-12-06 03:28:00
9:48 PM,43.0,23.0,45,-9999,-9999.0,South,11.5,-,N/A,,Unknown,180,2012-12-06 03:48:00
10:08 PM,44.1,23.0,43,-9999,-9999.0,South,13.8,-,N/A,,Unknown,170,2012-12-06 04:08:00
10:28 PM,45.0,24.1,44,-9999,-9999.0,South,12.7,-,N/A,,Unknown,180,2012-12-06 04:28:00
10:48 PM,44.1,24.1,45,-9999,-9999.0,South,10.4,-,N/A,,Unknown,180,2012-12-06 04:48:00
11:08 PM,43.0,23.0,45,-9999,-9999.0,South,9.2,-,N/A,,Unknown,190,2012-12-06 05:08:00
11:28 PM,42.1,23.0,47,-9999,-9999.0,South,10.4,-,N/A,,Unknown,180,2012-12-06 05:28:00
11:48 PM,41.0,23.0,49,-9999,-9999.0,South,9.2,-,N/A,,Unknown,190,2012-12-06 05:48:00